Time;durP1;ratioP1;P1;durP2;ratioP2;P2;SDS_P1;SDS_P2;PMS_P1;PMS_P2;Temp;Humidity;BMP_temperature;BMP_pressure;BME280_temperature;BME280_humidity;BME280_pressure;Samples;Min_cycle;Max_cycle;Signal;HPM_P1;HPM_P2
2024/01/13 00:01:45;;;;;;;7.32;2.63;;;3.60;99.90;;;;;;4990144;28;20035;-83
2024/01/13 00:04:11;;;;;;;10.18;3.00;;;3.50;99.90;;;;;;5000087;28;20049;-83
2024/01/13 00:06:38;;;;;;;12.50;3.17;;;2.40;99.90;;;;;;5006102;28;20458;-83
2024/01/13 00:09:05;;;;;;;12.80;3.10;;;2.40;99.90;;;;;;4993460;28;20118;-83
2024/01/13 00:11:33;;;;;;;8.90;3.58;;;2.40;99.90;;;;;;4993369;28;20146;-83
2024/01/13 00:14:00;;;;;;;17.05;3.50;;;2.40;99.90;;;;;;5009245;28;20054;-83
2024/01/13 00:16:26;;;;;;;13.82;3.58;;;2.90;99.90;;;;;;4992890;28;20047;-83
2024/01/13 00:18:53;;;;;;;11.20;3.38;;;2.50;99.90;;;;;;4992777;28;20038;-83
2024/01/13 00:21:20;;;;;;;12.60;3.25;;;2.40;99.90;;;;;;4996905;28;20042;-84
2024/01/13 00:23:46;;;;;;;7.68;3.22;;;2.80;99.90;;;;;;5004746;28;20043;-84
2024/01/13 00:26:13;;;;;;;12.02;3.50;;;2.40;99.90;;;;;;4992270;28;20400;-84
2024/01/13 00:28:39;;;;;;;10.35;3.30;;;2.40;99.90;;;;;;4989120;28;20034;-84
2024/01/13 00:31:06;;;;;;;13.38;3.45;;;2.40;99.90;;;;;;5031795;28;20581;-84
2024/01/13 00:33:33;;;;;;;6.45;3.30;;;2.30;99.90;;;;;;4998970;28;20050;-84
2024/01/13 00:36:00;;;;;;;15.30;3.80;;;2.90;99.90;;;;;;4999008;28;20042;-84
2024/01/13 00:38:26;;;;;;;10.85;3.22;;;2.40;99.90;;;;;;5027260;28;20042;-84
2024/01/13 00:40:53;;;;;;;13.05;3.60;;;2.40;99.90;;;;;;5028806;28;20512;-84
2024/01/13 00:43:20;;;;;;;9.43;3.90;;;2.40;99.90;;;;;;4992588;28;20041;-84
2024/01/13 00:45:46;;;;;;;9.23;2.85;;;2.50;99.90;;;;;;4992443;28;20046;-84
2024/01/13 00:48:13;;;;;;;11.35;3.25;;;2.40;99.90;;;;;;5021473;28;20047;-84
2024/01/13 00:50:39;;;;;;;11.32;3.22;;;2.80;99.90;;;;;;5006285;28;20097;-84
2024/01/13 00:53:06;;;;;;;13.63;3.15;;;2.40;99.90;;;;;;5025009;28;20101;-84
2024/01/13 00:55:33;;;;;;;10.43;3.08;;;2.40;99.90;;;;;;5008274;28;20070;-84
2024/01/13 00:57:59;;;;;;;11.15;3.30;;;2.40;99.90;;;;;;5003888;28;20042;-84
2024/01/13 01:00:26;;;;;;;9.98;2.97;;;2.50;99.90;;;;;;4993300;28;20043;-84
2024/01/13 01:02:52;;;;;;;14.40;2.90;;;3.00;99.90;;;;;;4980533;29;20047;-84
2024/01/13 01:05:19;;;;;;;16.58;3.17;;;3.40;99.90;;;;;;4991298;28;20534;-84
2024/01/13 01:07:47;;;;;;;10.50;2.63;;;2.50;99.90;;;;;;4992095;28;20047;-84
2024/01/13 01:10:14;;;;;;;6.57;3.25;;;2.50;99.90;;;;;;4995381;28;20065;-84
2024/01/13 01:12:40;;;;;;;10.02;3.05;;;2.50;99.90;;;;;;5007942;28;20046;-84
2024/01/13 01:15:07;;;;;;;14.02;3.50;;;2.50;99.90;;;;;;4991851;28;20512;-84
2024/01/13 01:17:34;;;;;;;8.32;3.10;;;2.50;99.90;;;;;;5005648;28;20045;-84
2024/01/13 01:20:00;;;;;;;11.10;3.30;;;3.30;99.90;;;;;;5003954;28;20484;-84
2024/01/13 01:22:27;;;;;;;17.35;2.97;;;3.00;99.90;;;;;;5009240;28;20031;-84
2024/01/13 01:24:54;;;;;;;12.25;3.10;;;2.50;99.90;;;;;;5003353;28;20384;-84
2024/01/13 01:27:20;;;;;;;11.15;2.70;;;2.50;99.90;;;;;;5008031;28;20047;-84
2024/01/13 01:29:47;;;;;;;8.77;3.00;;;2.50;99.90;;;;;;5024056;28;20042;-84
2024/01/13 01:32:13;;;;;;;15.27;3.42;;;2.50;99.90;;;;;;5021691;28;20038;-84
2024/01/13 01:34:40;;;;;;;16.15;2.83;;;2.50;99.90;;;;;;4981729;28;20039;-84
2024/01/13 01:37:07;;;;;;;11.32;2.50;;;2.90;99.90;;;;;;4980886;28;20048;-84
2024/01/13 01:39:33;;;;;;;9.50;2.83;;;2.50;99.90;;;;;;5011054;28;20042;-84
2024/01/13 01:42:00;;;;;;;19.40;3.38;;;3.20;99.90;;;;;;4994980;28;20035;-84
2024/01/13 01:44:26;;;;;;;12.68;3.10;;;2.50;99.90;;;;;;5007852;28;20408;-84
2024/01/13 01:46:56;;;;;;;10.02;3.00;;;2.50;99.90;;;;;;4991386;28;20065;-84
2024/01/13 01:49:23;;;;;;;8.88;2.72;;;3.40;99.90;;;;;;5015009;28;20050;-84
2024/01/13 01:51:50;;;;;;;5.30;2.53;;;2.40;99.90;;;;;;4998244;28;20051;-84
2024/01/13 01:54:17;;;;;;;9.90;2.40;;;3.20;99.90;;;;;;4999400;28;20410;-84
2024/01/13 01:56:44;;;;;;;7.18;2.83;;;3.60;99.90;;;;;;4993366;28;20039;-84
2024/01/13 01:59:11;;;;;;;6.93;2.72;;;2.40;99.90;;;;;;5002182;28;20037;-84
2024/01/13 02:01:38;;;;;;;5.50;2.53;;;2.40;99.90;;;;;;5023970;28;20034;-84
2024/01/13 02:04:04;;;;;;;9.10;2.80;;;2.40;99.90;;;;;;4982700;29;20050;-84
2024/01/13 02:06:31;;;;;;;10.93;2.60;;;2.50;99.90;;;;;;4997922;28;20038;-84
2024/01/13 02:08:58;;;;;;;9.40;2.70;;;2.40;99.90;;;;;;5001195;28;20049;-84
2024/01/13 02:11:24;;;;;;;10.35;2.95;;;2.40;99.90;;;;;;4991367;28;20105;-84
2024/01/13 02:13:51;;;;;;;8.90;2.40;;;2.40;99.90;;;;;;5001394;28;20057;-84
2024/01/13 02:16:18;;;;;;;7.45;2.63;;;2.50;99.90;;;;;;4981746;28;20129;-84
2024/01/13 02:18:45;;;;;;;10.88;2.42;;;2.50;99.90;;;;;;5016510;28;20126;-84
2024/01/13 02:21:12;;;;;;;7.05;2.47;;;2.50;99.90;;;;;;4991128;28;20081;-84
2024/01/13 02:23:39;;;;;;;6.07;2.30;;;3.10;99.90;;;;;;4997952;28;20046;-84
2024/01/13 02:26:06;;;;;;;8.55;2.17;;;2.40;99.90;;;;;;5007464;28;20051;-85
2024/01/13 02:28:33;;;;;;;7.80;2.22;;;3.60;99.90;;;;;;5007177;28;20047;-84
2024/01/13 02:30:59;;;;;;;6.85;2.50;;;2.50;99.90;;;;;;5007311;28;20043;-84
2024/01/13 02:33:26;;;;;;;4.95;2.35;;;2.50;99.90;;;;;;4988558;28;20479;-84
2024/01/13 02:35:53;;;;;;;6.28;2.30;;;2.50;99.90;;;;;;4990951;28;20051;-84
2024/01/13 02:38:19;;;;;;;6.03;2.40;;;2.50;99.90;;;;;;4991320;28;20045;-84
2024/01/13 02:40:46;;;;;;;5.95;2.45;;;2.40;99.90;;;;;;5020039;28;20043;-85
2024/01/13 02:43:12;;;;;;;9.00;2.20;;;2.40;99.90;;;;;;5006565;28;20071;-84
2024/01/13 02:45:39;;;;;;;9.98;2.45;;;3.30;99.90;;;;;;4991056;28;20034;-84
2024/01/13 02:48:18;;;;;;;6.40;2.60;;;3.00;99.90;;;;;;4994287;28;20074;-84
2024/01/13 02:50:53;;;;;;;6.38;2.40;;;2.30;99.90;;;;;;4990729;28;20055;-84
2024/01/13 02:53:19;;;;;;;6.85;2.10;;;2.40;99.90;;;;;;4978792;28;20059;-84
2024/01/13 02:55:46;;;;;;;7.68;2.20;;;2.40;99.90;;;;;;5019263;28;20051;-84
2024/01/13 02:58:12;;;;;;;4.95;2.15;;;2.40;99.90;;;;;;4979108;28;20038;-84
2024/01/13 03:00:39;;;;;;;5.07;2.13;;;3.10;99.90;;;;;;5006074;28;20093;-84
2024/01/13 03:03:06;;;;;;;5.40;2.33;;;2.40;99.90;;;;;;5010398;28;20096;-84
2024/01/13 03:05:32;;;;;;;5.70;1.92;;;2.40;99.90;;;;;;5010414;28;20488;-84
2024/01/13 03:07:59;;;;;;;5.97;2.05;;;2.50;99.90;;;;;;4996495;28;20042;-84
2024/01/13 03:10:26;;;;;;;7.13;2.13;;;2.40;99.90;;;;;;5013789;28;20045;-84
2024/01/13 03:12:53;;;;;;;6.60;2.30;;;2.90;99.90;;;;;;5010918;28;20051;-84
2024/01/13 03:15:19;;;;;;;6.00;1.98;;;2.60;99.90;;;;;;5010399;28;20122;-84
2024/01/13 03:17:46;;;;;;;9.95;2.22;;;2.50;99.90;;;;;;5010340;28;20046;-84
2024/01/13 03:20:13;;;;;;;6.03;1.90;;;2.40;99.90;;;;;;4994555;28;20074;-84
2024/01/13 03:22:39;;;;;;;6.13;2.08;;;2.50;99.90;;;;;;5009953;28;20533;-84
2024/01/13 03:25:06;;;;;;;9.40;2.50;;;2.90;99.90;;;;;;4994184;28;20046;-84
2024/01/13 03:27:33;;;;;;;7.07;2.33;;;2.50;99.90;;;;;;5000579;28;20130;-84
2024/01/13 03:30:00;;;;;;;5.75;1.83;;;2.50;99.90;;;;;;5023642;28;20043;-84
2024/01/13 03:32:26;;;;;;;8.80;2.08;;;2.40;99.90;;;;;;4993599;28;20504;-84
2024/01/13 03:34:53;;;;;;;5.97;2.00;;;2.50;99.90;;;;;;5009653;28;20073;-84
2024/01/13 03:37:19;;;;;;;10.00;2.40;;;2.40;99.90;;;;;;4980880;28;20034;-84
2024/01/13 03:39:46;;;;;;;7.63;2.60;;;3.00;99.90;;;;;;4993835;28;20047;-84
2024/01/13 03:42:13;;;;;;;6.07;2.25;;;2.50;99.90;;;;;;4993793;28;20896;-84
2024/01/13 03:44:39;;;;;;;8.32;2.03;;;2.50;99.90;;;;;;5001563;28;20057;-84
2024/01/13 03:47:06;;;;;;;8.40;2.60;;;2.40;99.90;;;;;;4998419;28;20043;-84
2024/01/13 03:49:33;;;;;;;7.65;2.55;;;2.50;99.90;;;;;;5018584;28;20046;-84
2024/01/13 03:51:59;;;;;;;7.25;2.28;;;2.50;99.90;;;;;;5003671;28;20054;-84
2024/01/13 03:54:26;;;;;;;5.47;2.05;;;2.60;99.90;;;;;;5023278;28;20042;-84
2024/01/13 03:56:52;;;;;;;4.68;2.22;;;2.60;99.90;;;;;;4999666;28;20041;-84
2024/01/13 03:59:20;;;;;;;5.35;2.35;;;2.50;99.90;;;;;;5006700;28;20030;-84
2024/01/13 04:01:46;;;;;;;6.00;2.22;;;2.60;99.90;;;;;;5013575;28;20044;-84
2024/01/13 04:04:13;;;;;;;6.68;2.00;;;2.60;99.90;;;;;;5012858;28;20128;-84
2024/01/13 04:06:40;;;;;;;7.68;1.95;;;2.60;99.90;;;;;;5016880;28;20038;-84
2024/01/13 04:09:07;;;;;;;5.57;2.00;;;2.50;99.90;;;;;;5005451;28;20042;-84
2024/01/13 04:11:34;;;;;;;5.55;2.00;;;3.20;99.90;;;;;;4995330;28;20038;-84
2024/01/13 04:14:01;;;;;;;6.35;2.20;;;2.70;99.90;;;;;;4996525;28;20045;-84
2024/01/13 04:16:27;;;;;;;6.68;1.90;;;2.50;99.90;;;;;;5014066;28;20411;-84
2024/01/13 04:18:54;;;;;;;11.43;2.15;;;2.50;99.90;;;;;;5004137;28;20042;-83
2024/01/13 04:21:21;;;;;;;4.68;2.08;;;2.50;99.90;;;;;;4991019;28;20043;-84
2024/01/13 04:23:47;;;;;;;7.88;1.90;;;2.50;99.90;;;;;;4992989;28;20089;-84
2024/01/13 04:26:14;;;;;;;5.63;1.90;;;2.50;99.90;;;;;;4992669;28;20046;-84
2024/01/13 04:28:41;;;;;;;9.13;1.88;;;2.50;99.90;;;;;;4989795;28;20046;-84
2024/01/13 04:31:07;;;;;;;10.20;2.65;;;2.40;99.90;;;;;;4989642;28;20126;-84
2024/01/13 04:33:34;;;;;;;7.00;1.83;;;2.50;99.90;;;;;;5005844;28;20475;-84
2024/01/13 04:36:01;;;;;;;3.40;1.50;;;2.40;99.90;;;;;;5012219;28;20518;-84
2024/01/13 04:38:28;;;;;;;4.10;1.60;;;3.50;99.90;;;;;;4996002;28;20460;-84
2024/01/13 04:40:55;;;;;;;7.53;2.08;;;2.50;99.90;;;;;;4999768;28;20065;-84
2024/01/13 04:43:22;;;;;;;8.18;1.88;;;2.50;99.90;;;;;;4996128;28;20551;-84
2024/01/13 04:45:49;;;;;;;5.13;1.90;;;3.30;99.90;;;;;;5011945;28;20089;-84
2024/01/13 04:48:17;;;;;;;10.10;1.90;;;2.50;99.90;;;;;;5007227;28;20574;-84
2024/01/13 04:50:44;;;;;;;6.32;1.67;;;2.40;99.90;;;;;;5000264;28;20054;-83
2024/01/13 04:53:11;;;;;;;8.25;2.10;;;2.80;99.90;;;;;;4995634;28;20046;-84
2024/01/13 04:55:37;;;;;;;6.60;1.88;;;2.50;99.90;;;;;;5011934;28;20049;-84
2024/01/13 04:58:04;;;;;;;8.35;2.20;;;2.40;99.90;;;;;;4983259;28;20045;-84
2024/01/13 05:00:33;;;;;;;5.78;1.95;;;2.50;99.90;;;;;;5011278;28;20042;-84
2024/01/13 05:03:01;;;;;;;5.53;2.35;;;2.50;99.90;;;;;;4982767;28;20035;-84
2024/01/13 05:05:27;;;;;;;6.82;2.30;;;2.50;99.90;;;;;;5008189;28;20137;-84
2024/01/13 05:07:54;;;;;;;5.60;2.03;;;2.50;99.90;;;;;;4983697;28;20547;-84
2024/01/13 05:10:20;;;;;;;6.90;2.22;;;2.50;99.90;;;;;;5023405;28;20045;-84
2024/01/13 05:12:47;;;;;;;5.82;1.92;;;2.50;99.90;;;;;;5027485;28;20042;-84
2024/01/13 05:15:14;;;;;;;7.47;2.10;;;2.60;99.90;;;;;;4995364;28;20118;-84
2024/01/13 05:17:40;;;;;;;5.85;2.00;;;2.50;99.90;;;;;;4995664;28;20049;-84
2024/01/13 05:20:08;;;;;;;13.10;2.50;;;2.60;99.90;;;;;;4995414;28;20069;-84
2024/01/13 05:22:34;;;;;;;6.28;2.00;;;2.60;99.90;;;;;;4997281;28;20030;-84
2024/01/13 05:25:01;;;;;;;5.30;2.45;;;2.60;99.90;;;;;;5022101;28;20100;-84
2024/01/13 05:27:28;;;;;;;6.93;2.17;;;3.10;99.90;;;;;;4997671;28;20034;-84
2024/01/13 05:29:55;;;;;;;8.23;2.33;;;2.90;99.90;;;;;;5011654;28;20030;-84
2024/01/13 05:32:21;;;;;;;7.95;2.38;;;2.60;99.90;;;;;;5020436;28;20042;-85
2024/01/13 05:34:48;;;;;;;5.20;2.13;;;2.60;99.90;;;;;;5011033;28;20121;-84
2024/01/13 05:37:14;;;;;;;5.60;1.98;;;2.60;99.90;;;;;;4985861;28;20034;-84
2024/01/13 05:39:41;;;;;;;8.15;2.40;;;3.40;99.90;;;;;;4995249;28;20038;-84
2024/01/13 05:42:08;;;;;;;6.78;2.10;;;2.60;99.90;;;;;;4994713;28;20038;-84
2024/01/13 05:44:34;;;;;;;8.00;2.08;;;3.60;99.90;;;;;;5011465;28;20093;-84
2024/01/13 05:47:01;;;;;;;5.80;2.10;;;2.60;99.90;;;;;;5023853;28;20049;-84
2024/01/13 05:49:28;;;;;;;7.97;2.08;;;3.60;99.90;;;;;;4987291;28;20098;-85
2024/01/13 05:51:54;;;;;;;6.20;2.10;;;2.70;99.90;;;;;;5009805;28;20422;-84
2024/01/13 05:54:21;;;;;;;7.82;1.80;;;3.30;99.90;;;;;;5019571;28;20073;-84
2024/01/13 05:56:47;;;;;;;6.25;2.10;;;2.60;99.90;;;;;;5001453;28;20074;-85
2024/01/13 05:59:14;;;;;;;8.55;2.35;;;3.30;99.90;;;;;;5022241;28;20062;-84
2024/01/13 06:01:41;;;;;;;7.10;2.08;;;2.60;99.90;;;;;;5001580;28;20044;-84
2024/01/13 06:04:07;;;;;;;12.57;2.15;;;2.60;99.90;;;;;;5014370;28;20103;-84
2024/01/13 06:06:35;;;;;;;6.22;2.15;;;3.30;99.90;;;;;;5001219;28;20046;-84
2024/01/13 06:09:01;;;;;;;6.28;2.08;;;2.60;99.90;;;;;;5004049;28;20039;-85
2024/01/13 06:11:28;;;;;;;6.60;2.05;;;3.30;99.90;;;;;;5014896;28;20180;-85
2024/01/13 06:13:56;;;;;;;5.78;1.80;;;3.00;99.90;;;;;;5003619;28;20049;-84
2024/01/13 06:16:22;;;;;;;6.47;2.47;;;2.70;99.90;;;;;;5007607;28;20046;-84
2024/01/13 06:18:49;;;;;;;7.50;2.20;;;3.00;99.90;;;;;;4994735;28;20042;-84
2024/01/13 06:21:15;;;;;;;6.43;1.83;;;2.60;99.90;;;;;;4999691;28;20042;-84
2024/01/13 06:23:42;;;;;;;6.60;2.40;;;3.10;99.90;;;;;;4997243;28;20026;-84
2024/01/13 06:26:09;;;;;;;6.80;1.98;;;2.70;99.90;;;;;;4992766;28;20042;-84
2024/01/13 06:28:35;;;;;;;3.25;1.42;;;2.60;99.90;;;;;;4994701;28;20069;-84
2024/01/13 06:31:03;;;;;;;7.55;1.80;;;2.70;99.90;;;;;;4994462;28;20043;-84
2024/01/13 06:33:29;;;;;;;5.40;1.48;;;2.60;99.90;;;;;;5010563;28;20038;-85
2024/01/13 06:35:57;;;;;;;5.57;1.58;;;3.50;99.90;;;;;;4997520;28;20545;-85
2024/01/13 06:38:24;;;;;;;4.25;1.70;;;2.70;99.90;;;;;;5014656;28;20179;-84
2024/01/13 06:40:51;;;;;;;5.60;1.55;;;3.30;99.90;;;;;;5011013;28;20043;-84
2024/01/13 06:43:17;;;;;;;4.82;1.70;;;2.70;99.90;;;;;;4998300;28;20532;-84
2024/01/13 06:45:44;;;;;;;5.30;1.65;;;2.60;99.90;;;;;;4998006;28;20066;-84
2024/01/13 06:48:10;;;;;;;5.47;1.30;;;2.80;99.90;;;;;;5003635;28;20047;-84
2024/01/13 06:50:37;;;;;;;3.95;1.63;;;3.00;99.90;;;;;;5029157;28;20046;-84
2024/01/13 06:53:03;;;;;;;3.97;1.58;;;3.60;99.90;;;;;;5025240;28;20053;-85
2024/01/13 06:55:30;;;;;;;6.60;1.80;;;3.60;99.90;;;;;;5004472;28;20041;-84
2024/01/13 06:57:57;;;;;;;6.00;1.60;;;2.70;99.90;;;;;;5006088;28;20046;-84
2024/01/13 07:00:23;;;;;;;7.07;1.55;;;2.70;99.90;;;;;;5013946;28;20046;-85
2024/01/13 07:02:50;;;;;;;3.00;1.30;;;3.10;99.90;;;;;;4998121;28;20046;-85
2024/01/13 07:05:16;;;;;;;5.80;1.60;;;2.60;99.90;;;;;;4980669;28;20046;-84
2024/01/13 07:07:43;;;;;;;4.20;1.50;;;2.70;99.90;;;;;;4998109;28;20042;-85
2024/01/13 07:10:10;;;;;;;6.18;1.30;;;2.60;99.90;;;;;;4997969;28;20490;-85
2024/01/13 07:12:36;;;;;;;6.13;1.45;;;2.70;99.90;;;;;;4997753;28;20046;-85
2024/01/13 07:15:03;;;;;;;3.08;1.33;;;2.70;99.90;;;;;;4997879;28;20035;-85
2024/01/13 07:17:30;;;;;;;6.40;1.45;;;2.60;99.90;;;;;;4997629;28;20038;-85
2024/01/13 07:19:57;;;;;;;4.72;1.40;;;2.60;99.90;;;;;;5004695;28;20096;-84
2024/01/13 07:22:24;;;;;;;3.53;1.42;;;2.70;99.90;;;;;;5002942;28;20038;-85
2024/01/13 07:24:50;;;;;;;3.95;1.50;;;3.50;99.90;;;;;;5005677;28;20042;-85
2024/01/13 07:27:17;;;;;;;6.32;1.60;;;2.70;99.90;;;;;;5002004;28;20046;-84
2024/01/13 07:29:43;;;;;;;5.55;1.45;;;2.60;99.90;;;;;;4997447;28;20042;-86
2024/01/13 07:32:10;;;;;;;5.25;1.50;;;2.70;99.90;;;;;;4984252;28;20127;-84
2024/01/13 07:34:37;;;;;;;4.00;1.55;;;2.70;99.90;;;;;;5013939;28;20042;-83
2024/01/13 07:37:03;;;;;;;5.40;1.48;;;2.70;99.90;;;;;;5001535;28;20506;-84
2024/01/13 07:39:30;;;;;;;7.07;1.70;;;3.30;99.90;;;;;;5012724;28;20039;-84
2024/01/13 07:41:56;;;;;;;5.10;1.70;;;2.70;99.90;;;;;;4996717;28;20038;-84
2024/01/13 07:44:23;;;;;;;8.18;1.95;;;2.70;99.90;;;;;;4987965;28;20103;-84
2024/01/13 07:46:49;;;;;;;5.03;1.60;;;2.70;99.90;;;;;;4993939;28;20506;-84
2024/01/13 07:49:16;;;;;;;5.43;2.55;;;2.70;99.90;;;;;;4990427;28;20046;-84
2024/01/13 07:51:49;;;;;;;4.90;1.70;;;2.70;99.90;;;;;;4997844;28;20054;-84
2024/01/13 07:54:16;;;;;;;3.90;1.85;;;2.70;99.90;;;;;;5012939;28;20047;-84
2024/01/13 07:56:42;;;;;;;3.65;1.42;;;2.70;99.90;;;;;;4980338;28;20834;-84
2024/01/13 07:59:09;;;;;;;4.88;1.63;;;3.00;99.90;;;;;;4993284;28;20045;-84
2024/01/13 08:01:35;;;;;;;6.78;3.70;;;2.80;99.90;;;;;;5028059;28;20700;-84
2024/01/13 08:04:02;;;;;;;4.35;1.55;;;2.80;99.90;;;;;;4988147;29;20039;-83
2024/01/13 08:06:29;;;;;;;5.18;1.92;;;2.70;99.90;;;;;;4985160;28;20054;-84
2024/01/13 08:08:57;;;;;;;5.35;1.90;;;2.80;99.90;;;;;;4997019;28;20060;-83
2024/01/13 08:11:23;;;;;;;4.75;1.98;;;2.80;99.90;;;;;;4992891;28;20041;-84
2024/01/13 08:13:50;;;;;;;6.38;3.00;;;2.80;99.90;;;;;;4992269;28;20039;-85
2024/01/13 08:16:17;;;;;;;8.20;3.00;;;2.80;99.90;;;;;;5008518;28;20047;-84
2024/01/13 08:18:43;;;;;;;5.40;2.17;;;4.00;99.90;;;;;;5000620;28;20046;-84
2024/01/13 08:21:10;;;;;;;7.47;2.58;;;2.80;99.90;;;;;;4980660;28;20507;-83
2024/01/13 08:23:37;;;;;;;6.95;2.90;;;3.30;99.90;;;;;;4984467;28;20098;-84
2024/01/13 08:26:03;;;;;;;11.88;3.30;;;2.80;99.90;;;;;;5013841;28;20039;-83
2024/01/13 08:28:30;;;;;;;10.25;3.47;;;3.90;99.90;;;;;;4987086;28;20042;-83
2024/01/13 08:30:57;;;;;;;10.20;4.15;;;2.80;99.90;;;;;;5000523;28;20043;-83
2024/01/13 08:33:23;;;;;;;11.52;4.82;;;2.80;99.90;;;;;;5006563;28;20065;-83
2024/01/13 08:35:50;;;;;;;15.90;4.90;;;2.90;99.90;;;;;;4981076;28;20043;-85
2024/01/13 08:38:17;;;;;;;14.70;5.68;;;2.90;99.90;;;;;;5014045;28;20035;-84
2024/01/13 08:40:47;;;;;;;14.90;6.32;;;2.90;99.90;;;;;;5007404;28;20118;-83
2024/01/13 08:43:13;;;;;;;15.52;6.60;;;2.90;99.90;;;;;;5010764;28;20055;-83
2024/01/13 08:45:40;;;;;;;17.95;6.80;;;2.90;99.90;;;;;;5005293;28;20512;-83
2024/01/13 08:48:07;;;;;;;22.73;8.05;;;2.90;99.90;;;;;;5008239;28;20478;-83
2024/01/13 08:50:34;;;;;;;24.17;7.57;;;3.90;99.90;;;;;;4996762;28;20405;-84
2024/01/13 08:53:00;;;;;;;24.02;8.50;;;3.90;99.90;;;;;;4991907;28;20041;-83
2024/01/13 08:55:27;;;;;;;32.65;9.13;;;2.90;99.90;;;;;;5006371;28;20069;-83
2024/01/13 08:57:53;;;;;;;33.38;9.50;;;3.00;99.90;;;;;;4974503;28;20039;-83
2024/01/13 09:00:22;;;;;;;24.00;8.50;;;4.00;99.90;;;;;;4972925;28;20046;-84
2024/01/13 09:02:48;;;;;;;31.98;10.60;;;2.90;99.90;;;;;;5007490;28;20050;-83
2024/01/13 09:05:15;;;;;;;26.67;10.57;;;3.00;99.90;;;;;;5001089;28;20038;-82
2024/01/13 09:07:41;;;;;;;29.60;11.98;;;3.00;99.90;;;;;;5004247;28;20039;-82
2024/01/13 09:10:08;;;;;;;37.95;12.90;;;3.50;99.90;;;;;;4984351;28;20071;-81
2024/01/13 09:12:36;;;;;;;37.70;12.98;;;3.00;99.90;;;;;;5004569;28;20042;-81
2024/01/13 09:15:06;;;;;;;34.17;13.48;;;3.00;99.90;;;;;;4990363;28;20039;-81
2024/01/13 09:17:32;;;;;;;38.92;13.32;;;3.00;99.90;;;;;;5004930;28;20047;-81
2024/01/13 09:19:59;;;;;;;39.03;14.75;;;3.00;99.90;;;;;;4996484;28;20369;-81
2024/01/13 09:22:26;;;;;;;39.95;14.55;;;3.00;99.90;;;;;;5002080;28;20031;-81
2024/01/13 09:24:52;;;;;;;42.78;14.65;;;3.00;99.90;;;;;;5023515;28;20117;-81
2024/01/13 09:27:19;;;;;;;43.53;15.57;;;3.10;99.90;;;;;;4987608;28;20047;-81
2024/01/13 09:29:45;;;;;;;44.63;16.13;;;3.00;99.90;;;;;;4979752;29;20050;-81
2024/01/13 09:32:15;;;;;;;48.63;16.35;;;3.90;99.90;;;;;;4985714;28;20042;-81
2024/01/13 09:34:42;;;;;;;45.53;15.43;;;4.00;99.90;;;;;;5003603;28;20404;-81
2024/01/13 09:37:10;;;;;;;42.95;16.40;;;3.10;99.90;;;;;;4996043;28;20043;-81
2024/01/13 09:39:36;;;;;;;47.60;18.05;;;4.00;99.90;;;;;;4985869;28;20081;-81
2024/01/13 09:42:03;;;;;;;56.35;18.83;;;3.10;99.90;;;;;;4976142;29;20067;-80
2024/01/13 09:44:32;;;;;;;48.47;16.38;;;3.10;99.90;;;;;;5004923;28;20118;-81
2024/01/13 09:47:00;;;;;;;47.42;18.40;;;3.10;99.90;;;;;;5012573;28;20097;-81
2024/01/13 09:49:29;;;;;;;48.90;17.52;;;3.60;99.90;;;;;;5003882;28;20047;-81
2024/01/13 09:51:57;;;;;;;49.63;17.45;;;3.00;99.90;;;;;;4991304;28;20066;-81
2024/01/13 09:54:27;;;;;;;51.55;18.50;;;3.10;99.90;;;;;;4991320;28;20046;-81
2024/01/13 09:56:55;;;;;;;43.80;19.38;;;3.10;99.90;;;;;;4991453;28;20042;-81
2024/01/13 09:59:25;;;;;;;51.13;19.48;;;3.10;99.90;;;;;;4991186;28;20066;-81
2024/01/13 10:01:53;;;;;;;49.60;19.30;;;3.80;99.90;;;;;;4991525;28;20039;-81
2024/01/13 10:04:19;;;;;;;51.92;19.63;;;3.10;99.90;;;;;;4991224;28;20085;-81
2024/01/13 10:06:48;;;;;;;57.08;20.23;;;3.10;99.90;;;;;;4991250;28;20451;-81
2024/01/13 10:09:15;;;;;;;70.93;21.92;;;3.20;99.90;;;;;;4994214;28;20054;-81
2024/01/13 10:11:42;;;;;;;61.35;21.45;;;3.80;99.90;;;;;;4997387;28;20035;-81
2024/01/13 10:14:12;;;;;;;59.47;21.67;;;3.10;99.90;;;;;;4995638;28;20558;-81
2024/01/13 10:16:39;;;;;;;61.60;22.80;;;3.00;99.90;;;;;;4995000;28;20392;-81
2024/01/13 10:19:08;;;;;;;61.50;21.80;;;3.00;99.90;;;;;;4999325;28;20050;-81
2024/01/13 10:21:36;;;;;;;60.53;22.45;;;3.30;99.90;;;;;;4994869;28;20035;-81
2024/01/13 10:24:02;;;;;;;63.58;22.88;;;3.10;99.90;;;;;;5008878;28;20167;-81
2024/01/13 10:26:30;;;;;;;67.55;21.90;;;3.10;99.90;;;;;;5009101;28;20503;-81
2024/01/13 10:28:58;;;;;;;59.88;22.60;;;3.10;99.90;;;;;;4983684;28;20101;-81
2024/01/13 10:31:25;;;;;;;60.78;23.65;;;3.10;99.90;;;;;;5006111;28;20038;-81
2024/01/13 10:33:52;;;;;;;62.28;21.80;;;3.10;99.90;;;;;;4994876;28;20054;-81
2024/01/13 10:36:24;;;;;;;62.28;22.65;;;3.50;99.90;;;;;;4994804;28;20051;-81
2024/01/13 10:38:52;;;;;;;69.20;23.00;;;3.20;99.90;;;;;;4994960;28;20554;-81
2024/01/13 10:41:25;;;;;;;73.75;23.38;;;3.70;99.90;;;;;;5007606;28;20118;-81
2024/01/13 10:43:55;;;;;;;57.28;25.15;;;3.20;99.90;;;;;;5011033;28;20156;-81
2024/01/13 10:46:24;;;;;;;68.68;24.92;;;3.20;99.90;;;;;;5030428;28;20046;-81
2024/01/13 10:49:10;;;;;;;65.03;23.38;;;3.20;99.90;;;;;;5017091;28;20045;-81
2024/01/13 10:51:47;;;;;;;;;;;3.30;99.90;;;;;;4999419;28;20058;-81
2024/01/13 10:54:16;;;;;;;61.92;22.13;;;3.30;99.90;;;;;;4979324;28;20371;-81
2024/01/13 10:56:43;;;;;;;67.72;22.08;;;3.30;99.90;;;;;;5005242;28;20069;-81
2024/01/13 10:59:10;;;;;;;62.85;22.17;;;3.30;99.90;;;;;;4994304;28;20118;-81
2024/01/13 11:01:38;;;;;;;53.55;22.10;;;3.30;99.90;;;;;;5010399;28;20047;-81
2024/01/13 11:04:04;;;;;;;63.50;23.05;;;3.40;99.90;;;;;;4985365;29;20057;-81
2024/01/13 11:06:31;;;;;;;55.65;21.25;;;3.50;99.90;;;;;;5012253;28;20068;-81
2024/01/13 11:09:00;;;;;;;60.97;20.77;;;3.40;99.90;;;;;;5004272;28;20074;-81
2024/01/13 11:11:43;;;;;;;55.88;21.23;;;3.40;99.90;;;;;;4994105;28;20504;-81
2024/01/13 11:14:14;;;;;;;54.92;19.67;;;3.40;99.90;;;;;;5010312;28;20074;-81
2024/01/13 11:16:45;;;;;;;46.50;19.52;;;3.50;99.90;;;;;;4994009;28;20035;-81
2024/01/13 11:19:12;;;;;;;55.75;20.48;;;3.50;99.90;;;;;;4997234;28;20035;-81
2024/01/13 11:21:41;;;;;;;48.95;19.00;;;3.50;99.90;;;;;;4993612;28;20035;-81
2024/01/13 11:24:13;;;;;;;48.05;17.77;;;3.50;99.90;;;;;;4995872;28;20034;-81
2024/01/13 11:26:50;;;;;;;43.67;18.90;;;4.00;99.90;;;;;;5013388;28;20046;-81
2024/01/13 11:29:19;;;;;;;49.55;17.70;;;3.50;99.90;;;;;;4995627;28;20054;-81
2024/01/13 11:31:46;;;;;;;50.50;18.58;;;3.50;99.90;;;;;;4993941;28;20054;-81
2024/01/13 11:34:17;;;;;;;39.58;16.23;;;3.50;99.90;;;;;;4993577;28;20042;-81
2024/01/13 11:36:56;;;;;;;47.28;16.98;;;3.50;99.90;;;;;;5009930;28;20038;-81
2024/01/13 11:39:24;;;;;;;38.92;17.17;;;3.60;99.90;;;;;;5014797;28;20089;-81
2024/01/13 11:41:54;;;;;;;42.67;17.00;;;3.60;99.90;;;;;;4982507;29;20444;-81
2024/01/13 11:44:49;;;;;;;39.53;16.08;;;4.20;99.90;;;;;;4992457;28;20062;-81
2024/01/13 11:47:27;;;;;;;50.72;17.52;;;3.60;99.90;;;;;;4973758;28;20050;-81
2024/01/13 11:49:54;;;;;;;38.75;15.40;;;3.60;99.90;;;;;;4996461;28;20054;-81
2024/01/13 11:52:31;;;;;;;40.65;14.38;;;4.60;99.90;;;;;;4995468;28;20507;-80
2024/01/13 11:54:58;;;;;;;36.30;14.98;;;3.60;99.90;;;;;;4994660;28;20053;-81
2024/01/13 11:57:26;;;;;;;48.75;15.13;;;3.60;99.90;;;;;;5013914;28;20035;-81
2024/01/13 11:59:53;;;;;;;38.83;14.38;;;3.60;99.90;;;;;;5003001;28;20034;-80
2024/01/13 12:02:22;;;;;;;42.83;14.27;;;3.70;99.90;;;;;;4999459;28;20041;-81
2024/01/13 12:04:49;;;;;;;34.83;13.60;;;4.70;99.90;;;;;;5014819;28;20069;-81
2024/01/13 12:07:16;;;;;;;28.92;11.93;;;3.70;99.90;;;;;;5001105;28;20038;-81
2024/01/13 12:09:43;;;;;;;41.60;13.23;;;3.70;99.90;;;;;;5013721;28;20080;-81
2024/01/13 12:12:11;;;;;;;30.17;12.13;;;3.70;99.90;;;;;;5023812;28;20069;-81
2024/01/13 12:14:38;;;;;;;28.17;12.05;;;3.70;99.90;;;;;;4991901;28;20072;-81
2024/01/13 12:17:05;;;;;;;30.73;12.75;;;4.00;99.90;;;;;;5018118;28;20121;-81
2024/01/13 12:19:36;;;;;;;35.65;11.98;;;3.70;99.90;;;;;;5003961;28;20473;-81
2024/01/13 12:22:04;;;;;;;28.65;11.88;;;3.70;99.90;;;;;;4989599;28;20440;-81
2024/01/13 12:24:33;;;;;;;29.08;11.82;;;3.70;99.90;;;;;;5022519;28;20100;-80
2024/01/13 12:27:00;;;;;;;30.48;11.32;;;3.80;99.90;;;;;;5025924;28;20046;-81
2024/01/13 12:29:30;;;;;;;23.83;10.98;;;3.70;99.90;;;;;;5007084;28;20046;-81
2024/01/13 12:31:58;;;;;;;33.05;10.63;;;3.70;99.90;;;;;;5014971;28;20077;-81
2024/01/13 12:34:25;;;;;;;24.15;9.90;;;3.70;99.90;;;;;;4987865;28;20041;-81
2024/01/13 12:36:54;;;;;;;22.70;10.35;;;3.70;99.90;;;;;;5016602;28;20121;-81
2024/01/13 12:39:22;;;;;;;30.30;10.13;;;3.70;99.90;;;;;;5012543;28;20513;-81
2024/01/13 12:41:48;;;;;;;24.65;9.05;;;4.20;99.90;;;;;;5015216;28;20120;-81
2024/01/13 12:44:15;;;;;;;25.50;8.93;;;3.80;99.90;;;;;;4995842;28;20113;-82
2024/01/13 12:46:42;;;;;;;23.42;9.00;;;4.90;99.90;;;;;;4994456;28;20046;-81
2024/01/13 12:49:16;;;;;;;26.02;8.18;;;3.70;99.90;;;;;;4996432;28;20103;-82
2024/01/13 12:51:44;;;;;;;20.58;8.30;;;4.90;99.90;;;;;;5022660;28;20050;-82